LiveATC.Net - Listen to live air traffic control over the Internet!


ICAO: EFKK  IATA: KOK   Airport: Kokkola-Pietarsaari Airport
City: Kronoby
Country: Finland   Continent: Europe
EFKK METAR Weather: EFKK 251750Z AUTO 33008KT 290V350 9999 OVC003 05/04 Q1001
EFKK Flight Activity (FlightAware)

EFKK Tower
Feed Status: UP   Listeners: 1
Listen in your browser - HTML5 player (in browser, HTML5)
Click here to listen with your own player (launches your MP3 player)
EFKK Tower Audio Archives
FacilityFrequency
Kronoby Tower120.100

NOTICE

Unauthorized use prohibited. See LiveATC.net Terms of Service


Find LiveATC Audio Streams


Airport/ARTCC Code

Frequency Search
(e.g., 124.400, 128.75)
Site-wide search
 


Browse LiveATC Feeds
Top 50 LiveATC Feeds
LiveATC Feed Map
Bad Weather Areas

LiveATC FAQ
Offer LiveATC feed
Contact LiveATC.net
Press Inquiries

LiveATC on iPhone
LiveATC on Android

Windows Phone
Windows 8/10

LiveATC Mobile
(Mobile browser)

ATC Audio Archives
Interesting Recordings

LiveATC Forums


Home Page
About LiveATC.net
Make a Donation
Terms of Use
Privacy Policy

Canadian Air Freqs

AIRMETs/SIGMETs

FAA Airport Status
Nat'l Airspace Status
Arrival Demand Charts


Server Software By:
Icecast.org
Liquidsoap